createdAt,value
2022-08-21T00:01:54.726Z,3.00
2022-08-21T00:04:23.231Z,3.22
2022-08-21T00:06:58.231Z,2.70
2022-08-21T00:09:26.590Z,2.90
2022-08-21T00:11:56.436Z,2.83
2022-08-21T00:14:24.874Z,2.83
2022-08-21T00:16:53.734Z,3.03
2022-08-21T00:19:29.159Z,3.15
2022-08-21T00:21:57.713Z,3.15
2022-08-21T00:24:26.538Z,3.05
2022-08-21T00:26:56.474Z,3.00
2022-08-21T00:29:24.938Z,3.15
2022-08-21T00:31:53.358Z,3.17
2022-08-21T00:34:21.778Z,3.15
2022-08-21T00:36:50.469Z,3.00
2022-08-21T00:39:18.898Z,2.85
2022-08-21T00:41:47.311Z,2.92
2022-08-21T00:44:17.720Z,3.20
2022-08-21T00:46:47.572Z,3.20
2022-08-21T00:49:15.969Z,3.10
2022-08-21T00:51:48.895Z,3.08
2022-08-21T00:54:19.457Z,3.15
2022-08-21T00:56:51.962Z,2.90
2022-08-21T00:59:23.382Z,3.22
2022-08-21T01:01:53.159Z,2.97
2022-08-21T01:04:21.980Z,3.10
2022-08-21T01:06:50.342Z,2.75
2022-08-21T01:09:19.847Z,3.08
2022-08-21T01:11:48.766Z,3.00
2022-08-21T01:14:19.333Z,2.97
2022-08-21T01:16:51.915Z,3.05
2022-08-21T01:19:22.704Z,3.00
2022-08-21T01:21:54.589Z,2.83
2022-08-21T01:24:23.473Z,2.60
2022-08-21T01:26:53.083Z,3.10
2022-08-21T01:29:31.206Z,3.25
2022-08-21T01:32:01.509Z,3.15
2022-08-21T01:34:29.938Z,2.85
2022-08-21T01:36:59.713Z,3.45
2022-08-21T01:39:28.063Z,2.92
2022-08-21T01:41:56.471Z,3.03
2022-08-21T01:44:25.745Z,3.58
2022-08-21T01:46:55.226Z,3.25
2022-08-21T01:49:23.671Z,2.80
2022-08-21T01:51:52.648Z,2.85
2022-08-21T01:54:22.650Z,2.80
2022-08-21T01:56:54.068Z,3.10
2022-08-21T01:59:24.522Z,2.88
2022-08-21T02:01:54.964Z,2.95
2022-08-21T02:04:23.705Z,3.15
2022-08-21T02:06:52.852Z,3.30
2022-08-21T02:09:23.596Z,2.97
2022-08-21T02:11:53.245Z,3.30
2022-08-21T02:14:30.281Z,3.00
2022-08-21T02:17:09.592Z,3.28
2022-08-21T02:19:40.797Z,3.15
2022-08-21T02:22:10.041Z,2.85
2022-08-21T02:24:54.948Z,2.75
2022-08-21T02:27:26.163Z,3.10
2022-08-21T02:29:56.298Z,3.00
2022-08-21T02:32:24.863Z,3.20
2022-08-21T02:34:53.251Z,2.97
2022-08-21T02:37:21.791Z,3.03
2022-08-21T02:39:51.860Z,2.80
2022-08-21T02:42:20.606Z,3.17
2022-08-21T02:44:48.973Z,2.80
2022-08-21T02:47:17.323Z,2.63
2022-08-21T02:49:45.730Z,3.20
2022-08-21T02:52:15.360Z,3.00
2022-08-21T02:54:43.700Z,2.97
2022-08-21T02:57:13.464Z,3.00
2022-08-21T02:59:41.867Z,3.15
2022-08-21T03:02:12.468Z,2.72
2022-08-21T03:04:46.039Z,3.10
2022-08-21T03:07:16.273Z,2.90
2022-08-21T03:09:45.543Z,2.70
2022-08-21T03:12:26.613Z,2.50
2022-08-21T03:17:29.993Z,3.05
2022-08-21T03:19:59.062Z,3.05
2022-08-21T03:22:27.761Z,3.00
2022-08-21T03:24:59.662Z,2.90
2022-08-21T03:27:31.887Z,2.90
2022-08-21T03:30:00.374Z,2.80
2022-08-21T03:32:29.115Z,3.00
2022-08-21T03:34:57.463Z,2.58
2022-08-21T03:37:26.358Z,2.92
2022-08-21T03:39:54.964Z,2.80
2022-08-21T03:42:23.717Z,2.97
2022-08-21T03:44:53.483Z,3.33
2022-08-21T03:47:22.946Z,3.28
2022-08-21T03:49:51.293Z,3.13
2022-08-21T03:52:20.430Z,3.17
2022-08-21T03:54:48.802Z,3.25
2022-08-21T03:57:17.187Z,3.78
2022-08-21T03:59:45.550Z,3.33
2022-08-21T04:02:18.503Z,3.50
2022-08-21T04:04:46.854Z,3.33
2022-08-21T04:07:15.196Z,4.20
2022-08-21T04:09:43.584Z,4.25
2022-08-21T04:12:12.034Z,4.07
2022-08-21T04:14:40.390Z,4.50
2022-08-21T04:17:08.882Z,4.40
2022-08-21T04:19:38.651Z,4.60
2022-08-21T04:22:07.074Z,3.90
2022-08-21T04:24:35.662Z,3.75
2022-08-21T04:27:04.097Z,4.65
2022-08-21T04:29:33.259Z,4.82
2022-08-21T04:32:02.752Z,4.30
2022-08-21T04:34:31.143Z,4.57
2022-08-21T04:37:00.858Z,4.60
2022-08-21T04:39:29.656Z,5.00
2022-08-21T04:41:58.411Z,5.07
2022-08-21T04:44:26.842Z,5.43
2022-08-21T04:46:55.173Z,4.60
2022-08-21T04:49:23.529Z,4.72
2022-08-21T04:51:52.047Z,4.32
2022-08-21T04:54:24.036Z,3.80
2022-08-21T04:56:58.132Z,3.88
2022-08-21T04:59:32.879Z,3.92
2022-08-21T05:02:02.970Z,3.70
2022-08-21T05:04:35.042Z,3.75
2022-08-21T05:07:06.962Z,4.20
2022-08-21T05:09:37.241Z,4.07
2022-08-21T05:12:06.292Z,3.88
2022-08-21T05:14:34.650Z,4.43
2022-08-21T05:17:03.105Z,4.90
2022-08-21T05:19:31.402Z,4.70
2022-08-21T05:21:59.751Z,4.97
2022-08-21T05:24:28.136Z,5.40
2022-08-21T05:26:57.864Z,5.10
2022-08-21T05:29:27.229Z,4.88
2022-08-21T05:31:55.571Z,4.80
2022-08-21T05:34:25.254Z,4.95
2022-08-21T05:36:53.658Z,5.60
2022-08-21T05:39:22.060Z,4.95
2022-08-21T05:41:50.431Z,5.28
2022-08-21T05:44:20.499Z,5.60
2022-08-21T05:46:51.021Z,5.70
2022-08-21T05:49:19.507Z,5.10
2022-08-21T05:51:47.835Z,5.38
2022-08-21T05:54:16.206Z,6.10
2022-08-21T05:56:45.548Z,5.95
2022-08-21T05:59:14.142Z,5.38
2022-08-21T06:01:43.974Z,6.10
2022-08-21T06:04:12.326Z,5.68
2022-08-21T06:06:40.718Z,5.28
2022-08-21T06:09:09.190Z,6.93
2022-08-21T06:11:37.910Z,6.22
2022-08-21T06:14:07.408Z,6.00
2022-08-21T06:16:35.810Z,6.05
2022-08-21T06:19:05.531Z,5.68
2022-08-21T06:21:33.901Z,5.55
2022-08-21T06:24:02.247Z,5.75
2022-08-21T06:26:30.646Z,5.38
2022-08-21T06:28:59.081Z,6.63
2022-08-21T06:31:29.277Z,5.75
2022-08-21T06:33:58.322Z,6.03
2022-08-21T06:36:28.118Z,5.80
2022-08-21T06:38:57.137Z,6.75
2022-08-21T06:41:27.064Z,6.60
2022-08-21T06:43:57.292Z,6.00
2022-08-21T06:46:27.012Z,6.60
2022-08-21T06:48:55.793Z,6.82
2022-08-21T06:51:24.427Z,5.88
2022-08-21T06:53:54.207Z,6.25
2022-08-21T06:56:22.802Z,5.70
2022-08-21T06:58:51.216Z,6.07
2022-08-21T07:01:28.471Z,5.65
2022-08-21T07:03:57.000Z,5.80
2022-08-21T07:06:26.710Z,7.05
2022-08-21T07:08:57.969Z,5.82
2022-08-21T07:11:27.956Z,5.68
2022-08-21T07:13:57.565Z,6.72
2022-08-21T07:16:26.033Z,6.47
2022-08-21T07:18:54.390Z,5.85
2022-08-21T07:21:26.004Z,5.45
2022-08-21T07:23:55.139Z,5.00
2022-08-21T07:26:26.844Z,5.38
2022-08-21T07:28:56.082Z,5.32
2022-08-21T07:31:26.113Z,5.05
2022-08-21T07:33:55.020Z,4.38
2022-08-21T07:36:23.454Z,5.03
2022-08-21T07:38:52.500Z,5.20
2022-08-21T07:41:26.303Z,6.20
2022-08-21T07:43:55.098Z,6.20
2022-08-21T07:46:23.463Z,6.47
2022-08-21T07:48:51.901Z,5.25
2022-08-21T07:51:25.606Z,4.70
2022-08-21T07:53:56.279Z,5.95
2022-08-21T07:56:26.049Z,4.18
2022-08-21T07:58:54.838Z,5.63
2022-08-21T08:01:23.342Z,5.22
2022-08-21T08:03:51.895Z,4.38
2022-08-21T08:06:20.487Z,4.05
2022-08-21T08:08:49.174Z,3.58
2022-08-21T08:11:17.752Z,3.63
2022-08-21T08:13:50.374Z,3.30
2022-08-21T08:16:19.768Z,2.75
2022-08-21T08:18:48.419Z,2.45
2022-08-21T08:21:17.095Z,2.42
2022-08-21T08:23:46.080Z,2.47
2022-08-21T08:26:16.510Z,2.50
2022-08-21T08:28:44.993Z,2.13
2022-08-21T08:31:14.829Z,2.00
2022-08-21T08:33:43.250Z,2.55
2022-08-21T08:36:15.868Z,2.08
2022-08-21T08:38:44.206Z,2.10
2022-08-21T08:41:16.832Z,1.95
2022-08-21T08:43:51.744Z,2.00
2022-08-21T08:46:35.565Z,2.05
2022-08-21T08:49:11.876Z,1.85
2022-08-21T08:51:53.034Z,1.83
2022-08-21T08:54:32.365Z,2.22
2022-08-21T08:57:02.442Z,1.90
2022-08-21T08:59:38.502Z,1.60
2022-08-21T09:02:12.768Z,1.92
2022-08-21T09:04:42.138Z,1.80
2022-08-21T09:07:18.263Z,1.50
2022-08-21T09:10:01.152Z,1.75
2022-08-21T09:12:38.967Z,1.60
2022-08-21T09:15:15.744Z,1.50
2022-08-21T09:17:58.904Z,1.60
2022-08-21T09:20:37.898Z,1.40
2022-08-21T09:23:20.442Z,1.52
2022-08-21T09:26:00.728Z,1.60
2022-08-21T09:28:29.204Z,1.40
2022-08-21T09:30:59.099Z,1.33
2022-08-21T09:33:28.835Z,1.40
2022-08-21T09:35:59.583Z,1.40
2022-08-21T09:38:33.799Z,1.40
2022-08-21T09:41:05.107Z,1.52
2022-08-21T09:43:34.582Z,1.20
2022-08-21T09:46:07.636Z,1.20
2022-08-21T09:48:44.408Z,1.33
2022-08-21T09:51:16.781Z,1.20
2022-08-21T09:53:48.617Z,1.20
2022-08-21T09:56:41.890Z,1.30
2022-08-21T09:59:21.387Z,1.40
2022-08-21T10:01:52.927Z,1.52
2022-08-21T10:04:25.862Z,1.50
2022-08-21T10:06:55.866Z,1.40
2022-08-21T10:09:26.778Z,1.45
2022-08-21T10:12:10.975Z,1.50
2022-08-21T10:14:52.661Z,1.30
2022-08-21T10:17:29.476Z,1.45
2022-08-21T10:20:06.998Z,1.60
2022-08-21T10:22:44.217Z,1.60
2022-08-21T10:25:20.020Z,1.50
2022-08-21T10:27:59.858Z,1.20
2022-08-21T10:30:38.378Z,1.65
2022-08-21T10:33:21.517Z,1.77
2022-08-21T10:35:58.524Z,1.30
2022-08-21T10:39:23.849Z,1.38
2022-08-21T10:42:08.358Z,1.55
2022-08-21T10:44:47.334Z,1.45
2022-08-21T10:47:24.793Z,1.70
2022-08-21T10:50:06.006Z,1.50
2022-08-21T10:52:47.550Z,1.20
2022-08-21T10:55:20.166Z,1.50
2022-08-21T10:57:52.071Z,1.52
2022-08-21T11:00:23.899Z,1.20
2022-08-21T11:02:59.231Z,1.30
2022-08-21T11:05:32.998Z,1.40
2022-08-21T11:08:08.697Z,1.20
2022-08-21T11:10:51.287Z,1.40
2022-08-21T11:13:34.656Z,1.52
2022-08-21T11:16:09.206Z,1.35
2022-08-21T11:18:42.627Z,1.25
2022-08-21T11:21:27.562Z,1.27
2022-08-21T11:24:05.634Z,1.30
2022-08-21T11:26:47.737Z,1.10
2022-08-21T11:29:25.733Z,1.15
2022-08-21T11:34:43.141Z,1.13
2022-08-21T11:37:20.413Z,1.20
2022-08-21T11:40:02.424Z,1.30
2022-08-21T11:42:40.521Z,1.30
2022-08-21T11:45:21.813Z,1.30
2022-08-21T11:48:02.695Z,1.73
2022-08-21T11:50:35.347Z,1.40
2022-08-21T11:53:10.615Z,1.40
2022-08-21T11:55:46.778Z,1.30
2022-08-21T11:58:22.970Z,1.60
2022-08-21T12:00:54.253Z,1.35
2022-08-21T12:03:28.750Z,1.45
2022-08-21T12:06:00.292Z,1.55
2022-08-21T12:08:31.127Z,1.20
2022-08-21T12:11:07.408Z,1.38
2022-08-21T12:13:41.983Z,1.40
2022-08-21T12:16:14.078Z,1.15
2022-08-21T12:18:44.101Z,1.10
2022-08-21T12:21:23.278Z,1.20
2022-08-21T12:24:03.027Z,1.30
2022-08-21T12:26:36.358Z,1.10
2022-08-21T12:29:07.963Z,0.90
2022-08-21T12:31:36.422Z,1.10
2022-08-21T12:34:12.622Z,1.20
2022-08-21T12:36:50.287Z,1.30
2022-08-21T12:39:24.386Z,1.00
2022-08-21T12:42:02.248Z,1.10
2022-08-21T12:44:39.711Z,1.10
2022-08-21T12:47:16.823Z,1.17
2022-08-21T12:49:56.254Z,1.27
2022-08-21T12:52:29.957Z,1.10
2022-08-21T12:54:58.339Z,1.00
2022-08-21T12:57:29.797Z,0.95
2022-08-21T13:00:03.931Z,1.00
2022-08-21T13:05:06.515Z,1.20
2022-08-21T13:07:37.884Z,1.20
2022-08-21T13:10:16.069Z,1.10
2022-08-21T13:12:46.430Z,1.20
2022-08-21T13:15:15.735Z,1.20
2022-08-21T13:17:49.168Z,1.33
2022-08-21T13:20:23.563Z,1.00
2022-08-21T13:22:52.537Z,1.20
2022-08-21T13:25:22.840Z,1.13
2022-08-21T13:28:02.552Z,1.30
2022-08-21T13:30:32.241Z,1.08
2022-08-21T13:33:02.488Z,1.10
2022-08-21T13:35:37.050Z,1.20
2022-08-21T13:38:07.289Z,0.95
2022-08-21T13:40:46.878Z,1.20
2022-08-21T13:43:21.040Z,1.05
2022-08-21T13:48:19.019Z,1.10
2022-08-21T13:50:48.185Z,1.20
2022-08-21T13:53:25.677Z,1.10
2022-08-21T13:55:58.614Z,1.17
2022-08-21T13:58:32.310Z,1.10
2022-08-21T14:01:05.042Z,1.10
2022-08-21T14:03:39.545Z,1.10
2022-08-21T14:06:14.634Z,0.90
2022-08-21T14:08:43.937Z,1.35
2022-08-21T14:11:14.067Z,1.02
2022-08-21T14:13:47.880Z,1.20
2022-08-21T14:16:19.848Z,1.05
2022-08-21T14:18:50.797Z,0.95
2022-08-21T14:21:30.306Z,1.10
2022-08-21T14:24:05.178Z,1.08
2022-08-21T14:26:36.661Z,1.05
2022-08-21T14:29:10.872Z,0.90
2022-08-21T14:31:43.754Z,0.90
2022-08-21T14:34:19.516Z,1.20
2022-08-21T14:36:49.196Z,1.20
2022-08-21T14:39:17.762Z,1.00
2022-08-21T14:41:49.414Z,0.90
2022-08-21T14:44:20.720Z,1.00
2022-08-21T14:46:55.608Z,1.08
2022-08-21T14:49:28.613Z,1.30
2022-08-21T14:51:59.114Z,1.00
2022-08-21T14:54:30.996Z,1.02
2022-08-21T14:57:03.093Z,0.90
2022-08-21T14:59:34.618Z,1.00
2022-08-21T15:02:05.083Z,1.00
2022-08-21T15:04:33.608Z,1.00
2022-08-21T15:07:02.090Z,1.00
2022-08-21T15:09:30.625Z,1.30
2022-08-21T15:12:03.018Z,1.00
2022-08-21T15:14:35.854Z,1.20
2022-08-21T15:17:05.137Z,0.93
2022-08-21T15:19:33.774Z,0.88
2022-08-21T15:22:02.244Z,1.00
2022-08-21T15:24:30.916Z,1.20
2022-08-21T15:27:02.150Z,1.08
2022-08-21T15:29:33.379Z,1.10
2022-08-21T15:32:16.895Z,0.95
2022-08-21T15:34:45.781Z,1.00
2022-08-21T15:37:14.141Z,1.00
2022-08-21T15:39:42.571Z,1.10
2022-08-21T15:42:13.243Z,1.00
2022-08-21T15:44:42.310Z,0.90
2022-08-21T15:47:16.298Z,1.10
2022-08-21T15:52:15.043Z,0.90
2022-08-21T15:54:43.799Z,0.90
2022-08-21T15:57:14.833Z,0.95
2022-08-21T15:59:45.509Z,0.90
2022-08-21T16:02:19.282Z,1.00
2022-08-21T16:04:47.791Z,0.90
2022-08-21T16:07:16.931Z,0.80
2022-08-21T16:09:45.790Z,0.90
2022-08-21T16:12:21.681Z,1.20
2022-08-21T16:14:51.327Z,0.90
2022-08-21T16:17:23.064Z,1.15
2022-08-21T16:19:51.414Z,1.20
2022-08-21T16:22:19.765Z,1.10
2022-08-21T16:24:48.094Z,1.00
2022-08-21T16:27:17.482Z,0.90
2022-08-21T16:29:47.325Z,1.30
2022-08-21T16:32:16.689Z,0.98
2022-08-21T16:34:48.987Z,1.10
2022-08-21T16:37:20.202Z,0.90
2022-08-21T16:39:53.205Z,1.00
2022-08-21T16:42:26.913Z,0.95
2022-08-21T16:44:57.065Z,1.00
2022-08-21T16:47:27.147Z,0.90
2022-08-21T16:49:57.210Z,1.10
2022-08-21T16:52:25.659Z,1.20
2022-08-21T16:54:54.353Z,0.93
2022-08-21T16:57:22.865Z,1.10
2022-08-21T16:59:51.320Z,1.08
2022-08-21T17:02:29.067Z,1.10
2022-08-21T17:04:58.891Z,1.15
2022-08-21T17:07:27.320Z,0.90
2022-08-21T17:09:55.684Z,1.02
2022-08-21T17:12:24.287Z,1.10
2022-08-21T17:14:52.795Z,1.10
2022-08-21T17:17:21.280Z,0.90
2022-08-21T17:19:49.634Z,1.27
2022-08-21T17:22:19.362Z,1.17
2022-08-21T17:24:47.787Z,1.27
2022-08-21T17:27:16.159Z,1.20
2022-08-21T17:29:44.583Z,1.10
2022-08-21T17:32:15.043Z,1.33
2022-08-21T17:34:43.452Z,1.27
2022-08-21T17:37:11.851Z,1.42
2022-08-21T17:39:41.916Z,1.20
2022-08-21T17:42:13.539Z,1.10
2022-08-21T17:44:43.500Z,1.10
2022-08-21T17:47:12.778Z,1.00
2022-08-21T17:49:41.617Z,0.95
2022-08-21T17:52:10.685Z,1.00
2022-08-21T17:54:41.069Z,1.10
2022-08-21T17:57:16.960Z,1.00
2022-08-21T17:59:45.443Z,0.90
2022-08-21T18:02:19.522Z,1.00
2022-08-21T18:04:50.664Z,0.90
2022-08-21T18:07:32.081Z,0.95
2022-08-21T18:10:01.880Z,1.00
2022-08-21T18:12:33.232Z,0.80
2022-08-21T18:15:02.654Z,0.95
2022-08-21T18:17:33.604Z,1.00
2022-08-21T18:20:02.184Z,1.00
2022-08-21T18:22:30.649Z,1.10
2022-08-21T18:24:59.274Z,1.10
2022-08-21T18:27:29.736Z,1.00
2022-08-21T18:30:01.238Z,0.93
2022-08-21T18:32:32.268Z,1.00
2022-08-21T18:35:02.705Z,0.93
2022-08-21T18:37:32.006Z,1.02
2022-08-21T18:40:00.869Z,1.02
2022-08-21T18:42:32.338Z,1.10
2022-08-21T18:45:04.094Z,0.90
2022-08-21T18:47:37.040Z,0.90
2022-08-21T18:50:10.619Z,1.10
2022-08-21T18:52:52.512Z,0.90
2022-08-21T18:55:23.038Z,1.15
2022-08-21T18:57:53.999Z,1.20
2022-08-21T19:00:27.524Z,1.30
2022-08-21T19:02:56.067Z,1.25
2022-08-21T19:05:25.617Z,1.10
2022-08-21T19:07:56.409Z,1.08
2022-08-21T19:10:28.666Z,1.02
2022-08-21T19:12:59.398Z,1.00
2022-08-21T19:15:30.044Z,1.10
2022-08-21T19:17:59.520Z,0.90
2022-08-21T19:20:30.500Z,1.10
2022-08-21T19:22:59.144Z,1.23
2022-08-21T19:25:33.831Z,1.08
2022-08-21T19:28:10.885Z,0.90
2022-08-21T19:30:46.010Z,1.20
2022-08-21T19:33:23.619Z,1.27
2022-08-21T19:35:52.821Z,1.10
2022-08-21T19:38:22.100Z,1.15
2022-08-21T19:40:51.202Z,1.30
2022-08-21T19:43:22.419Z,1.23
2022-08-21T19:45:54.623Z,1.00
2022-08-21T19:48:23.967Z,1.20
2022-08-21T19:50:52.663Z,1.10
2022-08-21T19:53:21.760Z,1.13
2022-08-21T19:55:50.159Z,1.30
2022-08-21T19:58:39.130Z,1.20
2022-08-21T20:01:16.623Z,1.13
2022-08-21T20:03:53.696Z,1.25
2022-08-21T20:06:37.597Z,1.30
2022-08-21T20:11:57.745Z,1.40
2022-08-21T20:14:31.118Z,1.30
2022-08-21T20:17:03.419Z,1.30
2022-08-21T20:19:31.875Z,1.10
2022-08-21T20:22:00.524Z,1.30
2022-08-21T20:24:30.305Z,1.30
2022-08-21T20:26:58.759Z,1.20
2022-08-21T20:29:31.454Z,1.30
2022-08-21T20:32:07.722Z,1.38
2022-08-21T20:34:36.143Z,1.50
2022-08-21T20:39:53.221Z,1.40
2022-08-21T20:42:21.785Z,1.23
2022-08-21T20:44:53.871Z,1.25
2022-08-21T20:47:23.854Z,1.27
2022-08-21T20:49:57.245Z,1.40
2022-08-21T20:52:27.950Z,1.30
2022-08-21T20:55:02.101Z,1.40
2022-08-21T20:57:39.201Z,1.23
2022-08-21T21:00:14.576Z,1.30
2022-08-21T21:02:50.751Z,1.20
2022-08-21T21:05:22.340Z,1.20
2022-08-21T21:08:00.434Z,1.42
2022-08-21T21:10:36.811Z,1.33
2022-08-21T21:13:11.682Z,1.40
2022-08-21T21:15:42.839Z,1.50
2022-08-21T21:18:19.160Z,1.50
2022-08-21T21:20:53.877Z,1.40
2022-08-21T21:26:01.507Z,1.27
2022-08-21T21:28:41.046Z,1.45
2022-08-21T21:31:12.711Z,1.30
2022-08-21T21:33:43.923Z,1.45
2022-08-21T21:36:23.486Z,1.40
2022-08-21T21:38:57.319Z,1.30
2022-08-21T21:41:35.606Z,1.27
2022-08-21T21:44:18.083Z,1.20
2022-08-21T21:46:56.239Z,1.30
2022-08-21T21:49:36.478Z,1.50
2022-08-21T21:55:28.364Z,1.30
2022-08-21T21:58:17.144Z,1.25
2022-08-21T22:00:55.639Z,1.40
2022-08-21T22:03:28.969Z,1.40
2022-08-21T22:06:04.507Z,1.50
2022-08-21T22:08:48.905Z,1.30
2022-08-21T22:11:32.308Z,1.30
2022-08-21T22:14:10.014Z,1.38
2022-08-21T22:16:38.834Z,1.20
2022-08-21T22:19:15.013Z,1.67
2022-08-21T22:21:50.501Z,1.50
2022-08-21T22:24:24.265Z,1.50
2022-08-21T22:27:07.759Z,1.23
2022-08-21T22:29:46.390Z,1.40
2022-08-21T22:32:24.665Z,1.60
2022-08-21T22:35:09.544Z,1.40
2022-08-21T22:37:41.987Z,1.30
2022-08-21T22:40:15.842Z,1.20
2022-08-21T22:42:44.365Z,1.40
2022-08-21T22:45:21.960Z,1.40
2022-08-21T22:47:53.582Z,1.35
2022-08-21T22:50:31.099Z,1.67
2022-08-21T22:53:04.670Z,1.40
2022-08-21T22:55:38.282Z,1.55
2022-08-21T22:58:12.505Z,1.30
2022-08-21T23:00:56.688Z,1.30
2022-08-21T23:03:31.844Z,1.35
2022-08-21T23:06:04.053Z,1.40
2022-08-21T23:08:44.186Z,1.35
2022-08-21T23:11:14.911Z,1.50
2022-08-21T23:13:47.930Z,1.42
2022-08-21T23:16:38.028Z,1.55
2022-08-21T23:19:14.851Z,1.42
2022-08-21T23:22:02.834Z,1.40
2022-08-21T23:25:00.950Z,1.58
2022-08-21T23:27:41.395Z,1.40
2022-08-21T23:30:14.815Z,1.50
2022-08-21T23:33:00.748Z,1.52
2022-08-21T23:35:51.129Z,1.52
2022-08-21T23:38:29.325Z,1.45
2022-08-21T23:41:11.134Z,1.30
2022-08-21T23:43:50.286Z,1.40
2022-08-21T23:46:42.870Z,1.50
2022-08-21T23:49:25.155Z,1.48
2022-08-21T23:52:06.674Z,1.60
2022-08-21T23:54:47.343Z,1.50
